Time;durP1;ratioP1;P1;durP2;ratioP2;P2;SDS_P1;SDS_P2;PMS_P1;PMS_P2;Temp;Humidity;BMP_temperature;BMP_pressure;BME280_temperature;BME280_humidity;BME280_pressure;Samples;Min_cycle;Max_cycle;Signal;HPM_P1;HPM_P2
2021/05/28 00:00:14;;;;;;;0.00;0.00;;;8.60;77.70;;;11.52;63.72;102348.94;4987582;28;97442;-68
2021/05/28 00:02:43;;;;;;;0.20;0.20;;;8.50;77.70;;;11.50;63.84;102350.28;4984867;28;96796;-68
2021/05/28 00:05:15;;;;;;;2.53;0.10;;;8.50;77.70;;;11.45;63.84;102345.75;4989115;28;96876;-68
2021/05/28 00:07:43;;;;;;;0.10;0.10;;;8.50;77.80;;;11.42;63.75;102353.50;4987930;28;96762;-67
2021/05/28 00:10:13;;;;;;;5.15;0.75;;;8.50;77.80;;;11.40;64.05;102348.41;4987593;28;98028;-68
2021/05/28 00:12:42;;;;;;;1.27;0.85;;;8.50;77.80;;;11.43;63.48;102357.81;4987767;28;97576;-67
2021/05/28 00:15:14;;;;;;;0.65;0.40;;;8.40;77.80;;;11.44;63.86;102362.91;4987136;28;96764;-68
2021/05/28 00:17:42;;;;;;;0.22;0.22;;;8.40;77.80;;;11.47;63.98;102365.06;4989470;28;96904;-68
2021/05/28 00:20:15;;;;;;;0.17;0.17;;;8.40;77.90;;;11.53;63.55;102363.16;4988497;28;96924;-68
2021/05/28 00:22:44;;;;;;;0.30;0.30;;;8.40;77.90;;;11.57;63.49;102356.25;4989391;28;97670;-68
2021/05/28 00:25:14;;;;;;;0.30;0.30;;;8.50;78.00;;;11.63;63.57;102365.91;4982246;28;96973;-68
2021/05/28 00:27:44;;;;;;;11.38;1.92;;;8.50;78.00;;;11.71;62.94;102362.66;4982063;28;97217;-68
2021/05/28 00:30:21;;;;;;;0.52;0.50;;;8.50;78.00;;;11.74;63.29;102364.81;4986186;28;97560;-67
2021/05/28 00:32:49;;;;;;;0.50;0.50;;;8.50;77.90;;;11.80;63.33;102369.91;4987675;28;97034;-68
2021/05/28 00:35:18;;;;;;;1.75;0.40;;;8.60;77.90;;;11.81;62.76;102371.53;4986164;28;96817;-67
2021/05/28 00:37:47;;;;;;;0.10;0.10;;;8.60;77.90;;;11.80;63.10;102369.91;4988456;28;97223;-68
2021/05/28 00:40:17;;;;;;;0.47;0.47;;;8.60;77.80;;;11.78;62.79;102361.34;4987060;28;99049;-67
2021/05/28 00:42:45;;;;;;;10.70;0.95;;;8.60;77.70;;;11.78;62.67;102366.69;5013886;28;98722;-68
2021/05/28 00:45:15;;;;;;;2.13;1.00;;;8.60;77.60;;;11.74;62.52;102364.81;4985946;28;96933;-68
2021/05/28 00:47:44;;;;;;;0.70;0.70;;;8.60;77.60;;;11.70;63.17;102366.44;4986590;28;96973;-67
2021/05/28 00:50:14;;;;;;;0.50;0.50;;;8.60;77.60;;;11.61;63.38;102360.78;4985853;28;97871;-67
2021/05/28 00:52:45;;;;;;;0.30;0.25;;;8.50;77.60;;;11.55;63.03;102361.88;4985406;28;97513;-67
2021/05/28 00:55:14;;;;;;;2.20;0.80;;;8.50;77.60;;;11.52;63.18;102365.06;4985379;28;96957;-68
2021/05/28 00:57:44;;;;;;;0.65;0.65;;;8.50;77.60;;;11.53;63.67;102373.91;4983907;28;97002;-68
2021/05/28 01:00:14;;;;;;;0.47;0.47;;;8.40;77.70;;;11.56;63.17;102384.13;4987626;28;97905;-68
2021/05/28 01:02:43;;;;;;;1.33;1.23;;;8.50;77.80;;;11.61;63.20;102381.47;4986222;28;98051;-68
2021/05/28 01:05:12;;;;;;;1.60;0.50;;;8.50;77.80;;;11.65;63.14;102383.34;4982801;28;97371;-68
2021/05/28 01:07:40;;;;;;;0.10;0.10;;;8.50;77.90;;;11.66;63.42;102384.16;4982796;28;97060;-67
2021/05/28 01:10:12;;;;;;;0.52;0.52;;;8.50;77.90;;;11.71;63.12;102384.16;4985342;28;97140;-68
2021/05/28 01:12:41;;;;;;;0.40;0.40;;;8.50;77.80;;;11.75;62.79;102386.03;4984314;28;97945;-68
2021/05/28 01:15:11;;;;;;;0.35;0.35;;;8.50;77.80;;;11.78;62.98;102393.56;4982669;28;96844;-68
2021/05/28 01:17:40;;;;;;;0.57;0.57;;;8.60;77.80;;;11.88;62.80;102390.84;4985941;28;96664;-68
2021/05/28 01:20:10;;;;;;;0.82;0.82;;;8.60;77.80;;;11.89;62.98;102395.16;4986412;28;97041;-68
2021/05/28 01:22:40;;;;;;;0.75;0.75;;;8.60;77.80;;;11.96;62.27;102394.88;4970740;28;97254;-68
2021/05/28 01:25:10;;;;;;;0.47;0.47;;;8.60;77.80;;;11.91;63.10;102394.91;4984248;28;96886;-68
2021/05/28 01:27:38;;;;;;;0.15;0.15;;;8.70;77.80;;;11.92;62.98;102391.91;5003259;28;97276;-68
2021/05/28 01:30:09;;;;;;;0.98;0.52;;;8.70;77.80;;;11.92;62.56;102405.34;4981630;28;98265;-68
2021/05/28 01:32:37;;;;;;;2.17;1.17;;;8.70;77.80;;;11.93;62.41;102395.44;4985173;28;97815;-68
2021/05/28 01:35:08;;;;;;;0.63;0.47;;;8.70;77.80;;;11.90;62.85;102396.75;4982052;28;97099;-68
2021/05/28 01:37:37;;;;;;;20.95;1.42;;;8.70;77.80;;;11.98;63.01;102398.09;4988013;28;97335;-68
2021/05/28 01:40:10;;;;;;;1.27;0.90;;;8.70;77.70;;;11.93;63.00;102396.22;4978831;28;97960;-68
2021/05/28 01:42:38;;;;;;;1.60;1.50;;;8.70;77.70;;;11.96;63.09;102395.69;4985181;28;96931;-68
2021/05/28 01:45:11;;;;;;;2.42;1.13;;;8.80;77.70;;;12.02;62.93;102396.47;4984871;28;96948;-67
2021/05/28 01:47:39;;;;;;;1.00;0.90;;;8.80;77.70;;;12.02;62.53;102400.00;4985838;28;97086;-68
2021/05/28 01:50:12;;;;;;;0.32;0.32;;;8.80;77.70;;;12.00;63.05;102396.75;4987519;28;96903;-68
2021/05/28 01:52:41;;;;;;;0.30;0.30;;;8.80;77.70;;;12.02;62.43;102400.00;4982849;28;97682;-68
2021/05/28 01:55:15;;;;;;;0.80;0.77;;;8.80;77.70;;;12.05;62.49;102399.44;4984803;28;96991;-67
2021/05/28 01:57:44;;;;;;;0.10;0.10;;;8.80;77.60;;;12.07;62.57;102394.59;4981953;28;96751;-68
2021/05/28 02:00:17;;;;;;;0.70;0.68;;;8.80;77.60;;;12.04;62.84;102405.06;5016661;28;96971;-68
2021/05/28 02:02:46;;;;;;;0.30;0.30;;;8.80;77.60;;;12.00;62.98;102399.44;5000501;28;96851;-67
2021/05/28 02:05:14;;;;;;;6.32;0.90;;;8.80;77.60;;;11.98;62.90;102393.53;5016215;28;97115;-67
2021/05/28 02:07:42;;;;;;;3.33;0.70;;;8.80;77.70;;;11.89;62.83;102395.16;5017140;28;98046;-68
2021/05/28 02:10:12;;;;;;;1.25;1.02;;;8.80;77.60;;;11.90;62.90;102393.28;5000288;28;96946;-68
2021/05/28 02:12:40;;;;;;;0.95;0.60;;;8.80;77.70;;;11.90;62.92;102395.97;4988662;28;98049;-68
2021/05/28 02:15:10;;;;;;;1.05;0.73;;;8.80;77.70;;;11.88;63.08;102393.53;4987130;28;96919;-67
2021/05/28 02:17:39;;;;;;;0.75;0.75;;;8.80;77.70;;;11.95;62.98;102394.06;4989718;28;97540;-68
2021/05/28 02:20:09;;;;;;;0.52;0.52;;;8.80;77.70;;;12.00;63.38;102390.56;4987275;28;97853;-68
2021/05/28 02:22:38;;;;;;;0.80;0.80;;;8.90;77.70;;;11.95;63.53;102402.13;4987263;28;98020;-68
2021/05/28 02:25:09;;;;;;;27.50;1.55;;;8.80;77.70;;;11.93;63.51;102395.44;4988660;28;97350;-67
2021/05/28 02:27:39;;;;;;;1.27;1.15;;;8.80;77.70;;;11.95;62.82;102402.13;4986722;28;96981;-68
2021/05/28 02:30:10;;;;;;;10.63;1.60;;;8.90;77.70;;;11.97;62.86;102405.34;4990650;28;98129;-68
2021/05/28 02:32:38;;;;;;;0.47;0.47;;;8.90;77.70;;;11.98;62.99;102404.25;4986520;28;96901;-67
2021/05/28 02:35:10;;;;;;;1.10;1.00;;;8.90;77.70;;;11.99;62.86;102400.50;4973390;28;96854;-68
2021/05/28 02:37:39;;;;;;;1.55;1.35;;;8.90;77.70;;;11.96;63.11;102411.00;4988729;28;96971;-68
2021/05/28 02:40:10;;;;;;;1.45;1.25;;;8.90;77.70;;;11.95;63.61;102410.19;4990047;28;97168;-69
2021/05/28 02:42:39;;;;;;;0.90;0.57;;;8.90;77.70;;;11.93;63.10;102400.78;4990142;28;96810;-68
2021/05/28 02:45:09;;;;;;;1.17;1.02;;;8.90;77.70;;;11.91;63.62;102409.13;4992208;28;96889;-68
2021/05/28 02:47:37;;;;;;;0.45;0.45;;;8.90;77.70;;;11.95;63.72;102415.56;4985337;28;96913;-68
2021/05/28 02:50:08;;;;;;;1.95;1.70;;;8.90;77.70;;;11.91;63.75;102419.84;5005093;28;97956;-68
2021/05/28 02:52:36;;;;;;;0.93;0.93;;;8.90;77.70;;;11.87;63.58;102415.31;4984070;28;98814;-68
2021/05/28 02:55:07;;;;;;;0.47;0.47;;;8.90;77.70;;;11.85;63.75;102420.13;4987298;28;96910;-67
2021/05/28 02:57:36;;;;;;;1.02;1.02;;;8.80;77.70;;;11.83;63.28;102424.97;4989779;28;97012;-68
2021/05/28 03:00:10;;;;;;;0.65;0.65;;;8.80;77.80;;;11.79;63.53;102432.75;4989802;28;97162;-68
2021/05/28 03:02:38;;;;;;;0.65;0.65;;;8.80;77.70;;;11.78;63.45;102430.31;4968426;28;99869;-68
2021/05/28 03:05:09;;;;;;;0.32;0.32;;;8.80;77.80;;;11.76;63.70;102433.31;4983241;28;96758;-68
2021/05/28 03:07:37;;;;;;;0.30;0.30;;;8.80;77.90;;;11.79;63.76;102432.75;4988220;28;96829;-68
2021/05/28 03:10:08;;;;;;;0.22;0.22;;;8.80;78.50;;;11.83;64.02;102431.16;4988237;28;98496;-68
2021/05/28 03:12:36;;;;;;;19.23;2.00;;;8.80;77.90;;;11.83;63.62;102438.38;4988989;28;97376;-68
2021/05/28 03:15:09;;;;;;;1.17;1.13;;;8.80;77.90;;;11.83;63.43;102431.16;4985538;28;96813;-68
2021/05/28 03:17:41;;;;;;;0.90;0.77;;;8.80;77.90;;;11.82;63.57;102434.91;4971467;28;97304;-68
2021/05/28 03:20:19;;;;;;;0.65;0.65;;;8.80;77.80;;;11.84;63.69;102430.06;5003945;28;96932;-68
2021/05/28 03:22:47;;;;;;;0.55;0.55;;;8.80;77.90;;;11.80;63.91;102434.38;5001350;28;98640;-68
2021/05/28 03:25:17;;;;;;;1.40;1.30;;;8.70;77.80;;;11.82;63.51;102434.91;4969023;28;96874;-67
2021/05/28 03:27:53;;;;;;;0.82;0.73;;;8.70;77.80;;;11.79;63.39;102432.75;4987905;28;97237;-68
2021/05/28 03:30:23;;;;;;;6.28;1.98;;;8.70;77.90;;;11.78;63.44;102433.84;4987651;28;98245;-68
2021/05/28 03:32:51;;;;;;;0.70;0.70;;;8.70;77.90;;;11.79;63.35;102430.06;4986669;28;96898;-67
2021/05/28 03:35:19;;;;;;;4.18;2.22;;;8.70;77.90;;;11.82;63.69;102444.84;4988868;28;96809;-68
2021/05/28 03:37:47;;;;;;;1.00;0.90;;;8.70;78.00;;;11.81;63.45;102435.16;4985964;28;97381;-68
2021/05/28 03:40:16;;;;;;;0.80;0.57;;;8.60;77.90;;;11.85;63.67;102442.41;4987848;28;97846;-68
2021/05/28 03:42:44;;;;;;;0.38;0.38;;;8.70;78.00;;;11.85;62.79;102436.22;4971566;28;98047;-67
2021/05/28 03:45:14;;;;;;;1.95;1.20;;;8.70;78.00;;;11.87;63.09;102450.22;4988283;28;97005;-67
2021/05/28 03:47:42;;;;;;;1.98;0.50;;;8.70;78.10;;;11.87;62.98;102461.75;4983386;28;96983;-68
2021/05/28 03:50:12;;;;;;;0.47;0.47;;;8.70;78.00;;;11.84;63.32;102462.31;4986532;28;98348;-68
2021/05/28 03:52:41;;;;;;;0.75;0.45;;;8.70;78.00;;;11.79;63.26;102454.25;5000506;28;97579;-68
2021/05/28 03:55:11;;;;;;;23.42;2.60;;;8.70;78.00;;;11.77;63.80;102461.75;4988350;28;97029;-67
2021/05/28 03:57:39;;;;;;;3.05;0.95;;;8.70;77.90;;;11.70;63.90;102466.56;4988900;28;98391;-67
2021/05/28 04:00:11;;;;;;;1.27;1.17;;;8.70;77.90;;;11.70;63.54;102465.78;4987238;28;99287;-68
2021/05/28 04:02:44;;;;;;;0.40;0.40;;;8.70;77.90;;;11.71;63.74;102465.53;4988207;28;96940;-68
2021/05/28 04:05:15;;;;;;;1.70;1.50;;;8.70;77.90;;;11.73;63.07;102458.00;4985119;28;97406;-68
2021/05/28 04:07:44;;;;;;;0.95;0.95;;;8.70;78.00;;;11.73;63.24;102460.69;4990946;28;96795;-68
2021/05/28 04:10:13;;;;;;;0.70;0.60;;;8.70;78.00;;;11.66;63.67;102467.38;4984927;28;100839;-68
2021/05/28 04:12:41;;;;;;;0.55;0.55;;;8.70;77.90;;;11.70;63.93;102468.47;4988031;28;97784;-68
2021/05/28 04:15:13;;;;;;;1.95;0.95;;;8.60;77.90;;;11.71;63.44;102470.06;4987340;28;97221;-67
2021/05/28 04:17:42;;;;;;;1.08;0.82;;;8.60;77.90;;;11.75;63.44;102481.88;4971659;28;97601;-68
2021/05/28 04:20:14;;;;;;;0.88;0.88;;;8.60;78.00;;;11.77;63.43;102482.44;4987405;28;97444;-68
2021/05/28 04:22:43;;;;;;;2.47;1.45;;;8.60;78.00;;;11.83;63.08;102484.03;4990315;28;97632;-67
2021/05/28 04:25:14;;;;;;;0.35;0.32;;;8.60;78.00;;;11.87;63.01;102490.50;5000074;28;97281;-68
2021/05/28 04:27:42;;;;;;;0.10;0.10;;;8.70;78.10;;;11.89;63.23;102497.22;4985528;28;96915;-67
2021/05/28 04:30:12;;;;;;;0.85;0.50;;;8.70;78.00;;;11.90;63.35;102493.44;4988155;28;97862;-68
2021/05/28 04:32:40;;;;;;;0.28;0.20;;;8.70;78.00;;;11.92;63.36;102499.38;5015964;27;101556;-67
2021/05/28 04:35:11;;;;;;;0.52;0.52;;;8.70;77.90;;;11.88;63.06;102498.28;4985429;28;97721;-67
2021/05/28 04:37:39;;;;;;;0.85;0.85;;;8.70;78.00;;;11.90;63.45;102498.81;4970193;28;97207;-67
2021/05/28 04:40:12;;;;;;;1.13;1.05;;;8.60;77.90;;;11.89;63.14;102499.09;4984363;28;97914;-68
2021/05/28 04:42:40;;;;;;;0.17;0.17;;;8.60;77.90;;;11.90;62.73;102503.41;4987878;28;97662;-67
2021/05/28 04:45:11;;;;;;;1.33;1.20;;;8.60;78.00;;;11.92;63.49;102494.00;4969908;28;97021;-68
2021/05/28 04:47:39;;;;;;;0.85;0.85;;;8.60;78.00;;;11.96;63.25;102508.50;4987470;28;96955;-68
2021/05/28 04:50:10;;;;;;;1.00;1.00;;;8.60;78.70;;;11.96;62.73;102500.44;4987432;28;98812;-68
2021/05/28 04:52:38;;;;;;;1.55;1.45;;;8.70;78.10;;;12.01;62.74;102505.00;4987160;28;96876;-68
2021/05/28 04:55:11;;;;;;;0.65;0.40;;;8.70;78.10;;;12.07;62.67;102514.69;4986763;28;96956;-68
2021/05/28 04:57:40;;;;;;;1.38;0.88;;;8.70;78.10;;;12.11;62.77;102516.56;4985471;28;96953;-68
2021/05/28 05:00:11;;;;;;;3.47;0.73;;;8.70;78.10;;;12.13;62.56;102510.91;4969953;28;98122;-68
2021/05/28 05:02:39;;;;;;;0.63;0.63;;;8.70;78.10;;;12.17;62.33;102510.13;4988005;28;98282;-68
2021/05/28 05:05:10;;;;;;;0.40;0.40;;;8.70;78.00;;;12.22;62.90;102512.03;5000476;28;97914;-68
2021/05/28 05:07:44;;;;;;;0.10;0.10;;;8.80;78.00;;;12.11;62.84;102511.19;4985735;28;96805;-68
2021/05/28 05:10:13;;;;;;;0.95;0.60;;;8.80;78.00;;;12.09;62.88;102510.66;4986385;28;96904;-68
2021/05/28 05:12:42;;;;;;;0.65;0.63;;;8.80;78.00;;;12.10;62.54;102514.97;4985739;28;97728;-69
2021/05/28 05:15:12;;;;;;;6.13;1.38;;;8.80;77.90;;;12.10;62.85;102527.59;5012150;28;97232;-68
2021/05/28 05:17:40;;;;;;;1.05;0.50;;;8.80;77.90;;;12.07;62.99;102518.19;4986982;28;97520;-68
2021/05/28 05:20:12;;;;;;;3.85;1.50;;;8.80;77.90;;;12.12;63.50;102528.13;4969633;28;97021;-68
2021/05/28 05:22:41;;;;;;;0.20;0.20;;;8.90;78.00;;;12.14;63.26;102524.09;4986624;28;96960;-68
2021/05/28 05:25:11;;;;;;;1.00;0.75;;;8.90;78.00;;;12.17;63.00;102528.16;4983203;28;97075;-68
2021/05/28 05:27:40;;;;;;;0.75;0.75;;;8.90;78.00;;;12.17;62.94;102526.25;4985267;28;97053;-68
2021/05/28 05:30:11;;;;;;;2.75;0.73;;;8.90;78.00;;;12.20;62.60;102532.97;4984331;28;97510;-68
2021/05/28 05:32:39;;;;;;;1.10;0.57;;;8.90;78.00;;;12.26;62.70;102535.38;4980846;28;96836;-68
2021/05/28 05:35:11;;;;;;;1.80;0.88;;;8.90;78.00;;;12.29;63.16;102537.53;4986942;28;97365;-69
2021/05/28 05:37:39;;;;;;;0.40;0.40;;;9.00;78.10;;;12.34;62.94;102537.56;4981861;28;96879;-68
2021/05/28 05:40:10;;;;;;;0.43;0.43;;;9.00;78.00;;;12.39;62.99;102544.78;4985499;28;98076;-68
2021/05/28 05:42:41;;;;;;;0.30;0.30;;;9.00;78.00;;;12.43;62.33;102541.31;4984437;28;96839;-68
2021/05/28 05:45:13;;;;;;;0.30;0.30;;;9.00;77.90;;;12.40;62.53;102535.66;4986951;28;98140;-68
2021/05/28 05:47:42;;;;;;;0.90;0.75;;;9.00;77.90;;;12.43;62.50;102541.31;4988159;28;96849;-68
2021/05/28 05:50:13;;;;;;;0.50;0.50;;;9.10;78.00;;;12.43;63.02;102548.53;4990478;28;97827;-68
2021/05/28 05:52:42;;;;;;;0.57;0.57;;;9.10;78.00;;;12.56;62.16;102546.13;4986779;28;96814;-68
2021/05/28 05:55:12;;;;;;;0.50;0.47;;;9.10;78.00;;;12.58;62.02;102543.97;4989643;28;96811;-68
2021/05/28 05:57:40;;;;;;;0.55;0.43;;;9.10;78.00;;;12.63;62.29;102547.47;4986393;28;96958;-68
2021/05/28 06:00:11;;;;;;;2.90;1.25;;;9.20;78.00;;;12.67;62.32;102553.13;4988452;28;96795;-68
2021/05/28 06:02:39;;;;;;;2.42;1.42;;;9.20;78.00;;;12.69;62.80;102562.50;4986091;28;97982;-68
2021/05/28 06:05:12;;;;;;;1.20;1.10;;;9.20;77.90;;;12.73;62.39;102568.94;4988426;28;98173;-68
2021/05/28 06:07:42;;;;;;;0.28;0.28;;;9.30;78.00;;;12.78;62.12;102571.66;4989321;28;96926;-68
2021/05/28 06:10:13;;;;;;;2.63;0.77;;;9.30;78.00;;;12.79;62.21;102577.81;4985210;28;97373;-68
2021/05/28 06:12:42;;;;;;;0.30;0.30;;;9.30;77.90;;;12.81;61.97;102581.88;4991139;28;97789;-68
2021/05/28 06:15:12;;;;;;;1.45;1.17;;;9.30;77.90;;;12.83;62.76;102579.72;4986799;28;97638;-69
2021/05/28 06:17:41;;;;;;;1.25;0.98;;;9.40;77.90;;;12.87;62.53;102590.72;4987149;28;97219;-67
2021/05/28 06:20:11;;;;;;;5.43;0.93;;;9.40;77.90;;;12.89;62.29;102591.25;4984485;28;97922;-68
2021/05/28 06:22:40;;;;;;;2.15;1.73;;;9.40;77.90;;;12.94;62.29;102586.72;4990460;28;97319;-68
2021/05/28 06:25:11;;;;;;;1.50;1.40;;;9.50;78.00;;;12.98;62.11;102579.69;5006149;28;96793;-68
2021/05/28 06:27:39;;;;;;;0.47;0.47;;;9.50;77.90;;;13.03;62.41;102579.69;4986841;28;99490;-67
2021/05/28 06:30:10;;;;;;;5.88;1.52;;;9.60;78.00;;;12.98;62.30;102589.69;4987836;28;98020;-68
2021/05/28 06:32:38;;;;;;;0.73;0.73;;;9.60;77.90;;;13.04;62.36;102586.69;4984545;28;97057;-68
2021/05/28 06:35:10;;;;;;;1.35;1.00;;;9.60;77.90;;;13.10;62.53;102591.00;4990710;28;96893;-68
2021/05/28 06:37:38;;;;;;;8.50;1.23;;;9.60;77.90;;;13.16;61.98;102595.28;4991474;28;96955;-68
2021/05/28 06:40:13;;;;;;;0.40;0.40;;;9.70;78.00;;;13.16;61.96;102592.59;4986951;28;97028;-68
2021/05/28 06:42:41;;;;;;;2.92;1.73;;;9.70;78.00;;;13.22;62.25;102593.38;4986041;28;97692;-67
2021/05/28 06:45:11;;;;;;;0.77;0.77;;;9.70;77.90;;;13.21;62.49;102592.56;4987415;28;96835;-68
2021/05/28 06:47:40;;;;;;;1.10;0.63;;;9.70;77.90;;;13.22;62.25;102590.69;4989826;28;97446;-68
2021/05/28 06:50:11;;;;;;;0.30;0.30;;;9.80;77.90;;;13.22;62.50;102596.06;4986265;28;99207;-69
2021/05/28 06:52:40;;;;;;;0.55;0.55;;;9.80;77.90;;;13.31;62.51;102591.72;4989676;28;97673;-68
2021/05/28 06:55:11;;;;;;;1.17;0.70;;;9.90;78.00;;;13.40;62.56;102592.78;4985430;28;96956;-68
2021/05/28 06:57:40;;;;;;;0.50;0.50;;;9.90;78.00;;;13.56;62.46;102600.50;4985540;28;96737;-68
2021/05/28 07:00:12;;;;;;;0.82;0.80;;;10.00;78.00;;;13.69;62.16;102599.09;4987107;28;97408;-68
2021/05/28 07:02:40;;;;;;;1.55;0.60;;;10.10;78.10;;;13.78;61.91;102600.13;4988540;28;96697;-68
2021/05/28 07:05:11;;;;;;;0.57;0.57;;;10.20;78.00;;;13.87;62.22;102606.56;4968557;28;96862;-68
2021/05/28 07:07:40;;;;;;;11.27;0.82;;;10.30;78.10;;;13.95;62.48;102603.28;4989136;28;97249;-68
2021/05/28 07:10:12;;;;;;;0.55;0.47;;;10.40;78.10;;;14.10;62.09;102601.31;4985777;28;99417;-68
2021/05/28 07:12:40;;;;;;;0.43;0.43;;;10.50;78.20;;;14.31;61.82;102605.50;4990017;28;97659;-68
2021/05/28 07:15:12;;;;;;;0.38;0.32;;;10.60;78.20;;;14.39;61.68;102604.91;4985487;28;96874;-68
2021/05/28 07:17:40;;;;;;;1.83;1.08;;;10.70;78.10;;;14.47;61.96;102607.81;4987554;28;97086;-68
2021/05/28 07:20:11;;;;;;;2.42;0.95;;;10.80;78.00;;;14.60;61.71;102609.06;4986056;28;97904;-68
2021/05/28 07:22:40;;;;;;;1.60;0.70;;;10.90;78.00;;;14.71;61.78;102607.88;5011724;28;98070;-68
2021/05/28 07:25:12;;;;;;;1.35;1.10;;;11.00;78.10;;;15.05;61.29;102604.03;4986792;28;96916;-68
2021/05/28 07:27:40;;;;;;;0.75;0.75;;;11.20;78.30;;;15.63;60.92;102599.31;4987414;28;96852;-68
2021/05/28 07:30:11;;;;;;;1.33;0.50;;;11.40;78.70;;;16.66;59.30;102600.78;4988614;28;96845;-68
2021/05/28 07:32:40;;;;;;;0.28;0.28;;;11.90;79.70;;;17.82;59.03;102601.75;4989773;28;97993;-68
2021/05/28 07:35:11;;;;;;;2.15;1.15;;;12.60;80.60;;;19.01;58.02;102599.91;4988986;28;96788;-68
2021/05/28 07:37:40;;;;;;;1.65;0.63;;;13.40;81.50;;;19.74;58.40;102597.28;4986821;28;97327;-68
2021/05/28 07:40:11;;;;;;;0.80;0.80;;;14.10;80.80;;;20.00;59.70;102607.09;4990474;28;99412;-69
2021/05/28 07:42:40;;;;;;;4.55;1.35;;;14.80;80.40;;;19.77;60.43;102604.81;4989187;28;98684;-66
2021/05/28 07:45:10;;;;;;;0.70;0.60;;;15.20;79.60;;;19.48;61.60;102608.13;4986925;28;96871;-66
2021/05/28 07:47:38;;;;;;;0.17;0.17;;;15.30;79.00;;;19.48;61.92;102613.56;4985874;28;97408;-66
2021/05/28 07:50:11;;;;;;;1.08;0.90;;;15.50;79.20;;;20.12;61.53;102611.94;4983913;28;98052;-66
2021/05/28 07:52:41;;;;;;;2.27;0.67;;;15.70;79.80;;;20.99;60.25;102611.16;5017696;28;97729;-66
2021/05/28 07:55:10;;;;;;;1.33;1.23;;;16.20;80.20;;;21.85;60.47;102609.63;4981787;28;96902;-66
2021/05/28 07:57:39;;;;;;;1.75;0.98;;;16.80;80.20;;;22.40;59.88;102607.44;4984021;28;97019;-66
2021/05/28 08:00:11;;;;;;;2.47;0.70;;;17.40;80.10;;;22.92;59.91;102605.78;4985240;28;97884;-66
2021/05/28 08:02:39;;;;;;;1.63;0.57;;;18.00;79.90;;;23.43;60.06;102608.69;4987282;28;97651;-66
2021/05/28 08:05:09;;;;;;;1.35;1.08;;;18.50;79.40;;;23.90;59.82;102607.06;4986987;28;97212;-66
2021/05/28 08:07:38;;;;;;;1.73;1.20;;;19.00;79.50;;;23.98;60.63;102612.38;4985105;28;96997;-66
2021/05/28 08:10:08;;;;;;;0.85;0.85;;;19.40;79.10;;;23.93;61.08;102611.84;4986931;28;97936;-67
2021/05/28 08:12:36;;;;;;;4.70;1.33;;;19.60;78.70;;;23.87;61.09;102602.28;4984515;28;99171;-66
2021/05/28 08:15:08;;;;;;;3.08;1.13;;;19.80;78.00;;;23.62;61.98;102608.09;4995622;28;96909;-67
2021/05/28 08:17:36;;;;;;;8.45;1.67;;;19.70;78.10;;;23.47;62.31;102611.53;4985507;28;97382;-66
2021/05/28 08:20:07;;;;;;;1.55;0.90;;;19.60;78.10;;;23.20;62.93;102601.28;4986445;28;97362;-66
2021/05/28 08:22:37;;;;;;;2.28;0.88;;;19.50;78.00;;;22.94;63.33;102606.25;4979351;28;98379;-68
2021/05/28 08:25:07;;;;;;;2.05;1.27;;;19.40;77.80;;;22.56;63.90;102605.69;4986024;28;96863;-66
2021/05/28 08:27:35;;;;;;;1.10;0.93;;;19.30;77.70;;;22.80;63.40;102608.47;4987908;28;96902;-66
2021/05/28 08:30:08;;;;;;;3.88;0.82;;;19.20;78.20;;;23.36;62.34;102604.91;4986960;28;97102;-66
2021/05/28 08:32:36;;;;;;;1.35;1.25;;;19.30;78.60;;;23.92;61.80;102605.56;4987096;28;97244;-66
2021/05/28 08:35:07;;;;;;;3.90;1.88;;;19.60;78.80;;;24.40;60.97;102604.59;5004621;28;96909;-66
2021/05/28 08:37:37;;;;;;;3.50;1.27;;;20.00;78.60;;;24.93;60.56;102609.59;4979670;28;96972;-67
2021/05/28 08:40:09;;;;;;;4.38;1.05;;;20.40;78.80;;;25.56;60.06;102605.69;4966757;28;97937;-67
2021/05/28 08:42:38;;;;;;;0.70;0.63;;;20.80;78.70;;;25.77;60.43;102605.00;4988766;28;97994;-67
2021/05/28 08:45:08;;;;;;;1.02;0.73;;;21.20;78.10;;;26.07;60.36;102608.03;4983203;28;97204;-67
2021/05/28 08:47:40;;;;;;;1.02;0.68;;;21.50;78.00;;;26.40;59.81;102598.09;4985886;28;96986;-67
2021/05/28 08:50:11;;;;;;;4.00;1.63;;;21.90;77.60;;;26.59;60.08;102602.81;4982215;28;96979;-67
2021/05/28 08:52:40;;;;;;;1.98;1.35;;;22.20;77.40;;;26.46;60.21;102601.38;4984056;28;97655;-67
2021/05/28 08:55:11;;;;;;;2.33;1.02;;;22.30;76.60;;;26.26;60.74;102602.53;4986232;28;97323;-67
2021/05/28 08:57:39;;;;;;;0.82;0.80;;;22.20;76.60;;;26.25;61.10;102593.47;4987799;28;96913;-68
2021/05/28 09:00:11;;;;;;;1.08;0.55;;;22.20;77.00;;;26.61;60.52;102597.75;4986199;28;98941;-67
2021/05/28 09:02:41;;;;;;;3.85;1.23;;;22.30;77.30;;;26.87;60.04;102586.81;4984459;28;96813;-68
2021/05/28 09:05:15;;;;;;;9.20;1.77;;;22.40;77.30;;;26.98;59.96;102590.53;5019735;27;96753;-66
2021/05/28 09:07:58;;;;;;;1.00;0.85;;;22.60;77.20;;;27.14;59.86;102586.50;4987357;28;97009;-67
2021/05/28 09:10:36;;;;;;;2.33;1.40;;;22.80;76.80;;;27.23;59.74;102587.06;4983258;28;98212;-65
2021/05/28 09:13:15;;;;;;;2.17;0.90;;;23.00;76.70;;;27.23;59.91;102575.25;4984164;28;97068;-66
2021/05/28 09:15:47;;;;;;;0.35;0.35;;;23.10;76.40;;;27.33;59.80;102582.91;4986671;28;97214;-66
2021/05/28 09:18:16;;;;;;;4.38;0.98;;;23.20;76.30;;;27.51;59.56;102576.50;4986649;28;97148;-66
2021/05/28 09:20:56;;;;;;;0.80;0.47;;;23.30;76.00;;;27.67;59.18;102571.59;4985661;28;97764;-66
2021/05/28 09:23:26;;;;;;;0.90;0.68;;;23.50;75.70;;;27.49;59.68;102570.56;4988364;28;97667;-67
2021/05/28 09:26:03;;;;;;;0.35;0.35;;;23.50;75.30;;;27.46;59.66;102574.84;4988401;28;96831;-67
2021/05/28 09:28:40;;;;;;;1.02;0.60;;;23.60;75.10;;;27.63;59.37;102579.00;4984524;28;97494;-66
2021/05/28 09:31:14;;;;;;;2.20;1.73;;;23.60;75.20;;;27.94;58.86;102575.91;4983688;28;98218;-66
2021/05/28 09:33:47;;;;;;;1.58;1.23;;;23.70;75.10;;;28.07;58.69;102575.28;4984697;28;97699;-69
2021/05/28 09:36:21;;;;;;;1.13;1.03;;;23.90;74.80;;;28.14;58.55;102569.06;4985787;28;97418;-68
2021/05/28 09:39:11;;;;;;;0.88;0.80;;;24.00;74.70;;;28.16;58.31;102567.50;5002295;28;96897;-69
2021/05/28 09:41:48;;;;;;;0.70;0.55;;;24.00;74.20;;;28.24;58.69;102576.66;4982149;28;96989;-69
2021/05/28 09:44:21;;;;;;;1.40;1.20;;;24.10;74.40;;;28.27;58.19;102571.19;4986230;28;97695;-69
2021/05/28 09:47:07;;;;;;;1.30;0.50;;;24.20;74.40;;;28.39;58.04;102568.19;4985752;28;97024;-68
2021/05/28 09:49:40;;;;;;;1.10;0.77;;;24.30;74.00;;;28.47;57.79;102571.84;4983561;28;97260;-67
2021/05/28 09:52:16;;;;;;;1.07;0.97;;;24.30;73.90;;;28.30;58.65;102567.72;4985971;28;97486;-66
2021/05/28 09:55:02;;;;;;;1.15;1.05;;;24.30;73.60;;;28.24;58.18;102566.44;4983565;28;97670;-67
2021/05/28 09:57:36;;;;;;;2.50;1.20;;;24.40;73.40;;;28.12;58.55;102563.16;4986664;28;97288;-67
2021/05/28 10:00:22;;;;;;;1.05;0.70;;;24.30;73.40;;;28.23;58.18;102553.81;4984739;28;97088;-68
2021/05/28 10:03:12;;;;;;;0.25;0.25;;;24.30;73.30;;;28.43;57.85;102566.28;4984615;28;97854;-70
2021/05/28 10:05:45;;;;;;;5.22;0.80;;;24.40;73.50;;;28.52;57.51;102560.44;4986323;28;97695;-70
2021/05/28 10:08:16;;;;;;;0.93;0.80;;;24.50;73.30;;;28.49;57.44;102550.97;4984268;28;96928;-70
2021/05/28 10:10:48;;;;;;;1.88;1.02;;;24.60;73.10;;;28.60;57.32;102553.81;5001625;28;96892;-69
2021/05/28 10:13:21;;;;;;;3.07;0.67;;;24.70;72.70;;;28.71;56.69;102557.50;4995255;28;98039;-72
2021/05/28 10:15:52;;;;;;;2.88;0.90;;;24.70;72.40;;;28.83;56.88;102563.53;4987680;28;97706;-74
2021/05/28 10:18:23;;;;;;;1.00;0.68;;;24.80;72.30;;;28.87;56.06;102558.81;4987169;28;97120;-73
2021/05/28 10:20:57;;;;;;;0.73;0.73;;;24.80;72.00;;;28.85;56.16;102561.16;4988064;28;96988;-72
2021/05/28 10:23:25;;;;;;;0.85;0.63;;;24.80;71.80;;;28.44;56.92;102567.84;4987353;28;97723;-71
2021/05/28 10:25:58;;;;;;;0.60;0.30;;;24.70;71.40;;;28.20;57.25;102556.53;4981210;28;97470;-70
2021/05/28 10:28:32;;;;;;;1.25;0.98;;;24.60;71.60;;;28.21;57.27;102567.16;4980812;28;97109;-69
2021/05/28 10:31:04;;;;;;;0.85;0.85;;;24.50;71.70;;;28.30;56.68;102562.19;4987364;28;96983;-69